createdAt,value
2023-02-06T00:01:17.909Z,0.76
2023-02-06T00:03:44.668Z,0.71
2023-02-06T00:06:11.445Z,0.57
2023-02-06T00:08:38.210Z,0.55
2023-02-06T00:11:07.575Z,0.51
2023-02-06T00:13:35.708Z,0.60
2023-02-06T00:16:03.132Z,0.58
2023-02-06T00:18:30.515Z,0.63
2023-02-06T00:20:57.256Z,0.68
2023-02-06T00:23:24.058Z,0.58
2023-02-06T00:25:51.214Z,0.59
2023-02-06T00:28:18.036Z,0.56
2023-02-06T00:30:47.789Z,0.61
2023-02-06T00:33:14.640Z,0.56
2023-02-06T00:35:41.474Z,0.57
2023-02-06T00:38:10.620Z,0.66
2023-02-06T00:40:38.146Z,0.59
2023-02-06T00:43:04.893Z,0.59
2023-02-06T00:45:31.682Z,0.63
2023-02-06T00:47:58.569Z,0.65
2023-02-06T00:50:25.288Z,0.68
2023-02-06T00:52:52.128Z,0.72
2023-02-06T00:55:18.886Z,0.72
2023-02-06T00:57:45.658Z,0.61
2023-02-06T01:00:13.066Z,0.65
2023-02-06T01:02:39.875Z,0.62
2023-02-06T01:05:06.921Z,0.54
2023-02-06T01:07:33.635Z,0.48
2023-02-06T01:10:00.334Z,0.45
2023-02-06T01:12:27.163Z,0.50
2023-02-06T01:14:57.117Z,0.52
2023-02-06T01:17:23.804Z,0.53
2023-02-06T01:20:02.958Z,0.57
2023-02-06T01:22:29.677Z,0.56
2023-02-06T01:24:56.391Z,0.57
2023-02-06T01:27:23.135Z,0.59
2023-02-06T01:29:50.176Z,0.42
2023-02-06T01:32:16.845Z,0.46
2023-02-06T01:34:43.790Z,0.46
2023-02-06T01:37:10.607Z,0.41
2023-02-06T01:39:37.885Z,0.43
2023-02-06T01:42:05.457Z,0.51
2023-02-06T01:44:34.107Z,0.58
2023-02-06T01:47:00.795Z,0.60
2023-02-06T01:49:43.095Z,0.54
2023-02-06T01:52:15.730Z,0.48
2023-02-06T01:54:43.098Z,0.58
2023-02-06T01:57:12.139Z,0.55
2023-02-06T02:02:09.047Z,0.48
2023-02-06T02:04:35.820Z,0.54
2023-02-06T02:07:17.888Z,0.45
2023-02-06T02:09:44.587Z,0.44
2023-02-06T02:12:11.581Z,0.29
2023-02-06T02:14:40.943Z,0.33
2023-02-06T02:17:44.079Z,0.34
2023-02-06T02:20:35.607Z,0.26
2023-02-06T02:23:30.474Z,0.32
2023-02-06T02:26:18.810Z,0.33
2023-02-06T02:29:04.657Z,0.36
2023-02-06T02:31:47.119Z,0.34
2023-02-06T02:34:31.766Z,0.30
2023-02-06T02:37:22.502Z,0.33
2023-02-06T02:40:03.963Z,0.34
2023-02-06T02:42:44.153Z,0.42
2023-02-06T02:45:21.298Z,0.45
2023-02-06T02:47:57.090Z,0.48
2023-02-06T02:50:24.552Z,0.41
2023-02-06T02:52:51.799Z,0.39
2023-02-06T02:55:23.506Z,0.37
2023-02-06T02:57:54.156Z,0.47
2023-02-06T03:00:23.420Z,0.37
2023-02-06T03:02:51.648Z,0.43
2023-02-06T03:05:25.329Z,0.44
2023-02-06T03:08:06.698Z,0.45
2023-02-06T03:10:44.237Z,0.46
2023-02-06T03:13:21.694Z,0.48
2023-02-06T03:15:53.365Z,0.41
2023-02-06T03:18:31.360Z,0.41
2023-02-06T03:21:00.380Z,0.37
2023-02-06T03:23:32.755Z,0.28
2023-02-06T03:26:04.402Z,0.30
2023-02-06T03:28:44.118Z,0.33
2023-02-06T03:31:18.434Z,0.33
2023-02-06T03:33:54.970Z,0.40
2023-02-06T03:36:22.230Z,0.43
2023-02-06T03:38:52.486Z,0.47
2023-02-06T03:41:24.292Z,0.39
2023-02-06T03:43:53.001Z,0.36
2023-02-06T03:46:20.868Z,0.40
2023-02-06T03:48:54.356Z,0.48
2023-02-06T03:51:44.234Z,0.47
2023-02-06T03:54:14.139Z,0.44
2023-02-06T03:56:44.154Z,0.52
2023-02-06T03:59:11.192Z,0.51
2023-02-06T04:01:44.688Z,0.57
2023-02-06T04:04:29.268Z,0.49
2023-02-06T04:07:02.839Z,0.43
2023-02-06T04:09:30.151Z,0.42
2023-02-06T04:11:56.845Z,0.44
2023-02-06T04:14:23.676Z,0.37
2023-02-06T04:16:50.471Z,0.35
2023-02-06T04:19:17.365Z,0.36
2023-02-06T04:21:44.108Z,0.33
2023-02-06T04:24:11.180Z,0.41
2023-02-06T04:26:37.877Z,0.33
2023-02-06T04:29:04.595Z,0.34
2023-02-06T04:31:31.377Z,0.26
2023-02-06T04:33:59.131Z,0.33
2023-02-06T04:36:25.862Z,0.42
2023-02-06T04:38:55.576Z,0.41
2023-02-06T04:41:22.749Z,0.44
2023-02-06T04:43:49.568Z,0.49
2023-02-06T04:46:16.289Z,0.48
2023-02-06T04:51:08.456Z,0.47
2023-02-06T04:53:35.880Z,0.36
2023-02-06T04:56:08.474Z,0.21
2023-02-06T04:58:36.268Z,0.24
2023-02-06T05:01:06.726Z,0.14
2023-02-06T05:03:33.728Z,0.19
2023-02-06T05:06:02.255Z,0.17
2023-02-06T05:08:29.845Z,0.18
2023-02-06T05:10:57.201Z,0.20
2023-02-06T05:13:24.274Z,0.19
2023-02-06T05:15:51.071Z,0.16
2023-02-06T05:18:18.038Z,0.21
2023-02-06T05:20:44.991Z,0.17
2023-02-06T05:23:14.449Z,0.29
2023-02-06T05:25:42.332Z,0.20
2023-02-06T05:28:08.611Z,0.24
2023-02-06T05:30:35.895Z,0.23
2023-02-06T05:33:02.655Z,0.13
2023-02-06T05:35:29.886Z,0.14
2023-02-06T05:37:57.689Z,0.06
2023-02-06T05:40:24.615Z,0.21
2023-02-06T05:42:51.433Z,0.06
2023-02-06T05:45:19.401Z,0.04
2023-02-06T05:47:46.122Z,0.14
2023-02-06T05:50:12.875Z,0.08
2023-02-06T05:52:39.760Z,0.03
2023-02-06T05:55:07.088Z,-0.02
2023-02-06T05:57:33.989Z,0.02
2023-02-06T06:00:00.785Z,-0.01
2023-02-06T06:02:27.577Z,-0.03
2023-02-06T06:04:54.346Z,-0.02
2023-02-06T06:07:21.177Z,0.00
2023-02-06T06:09:48.101Z,-0.18
2023-02-06T06:12:15.629Z,-0.10
2023-02-06T06:17:12.135Z,-0.27
2023-02-06T06:19:38.791Z,-0.23
2023-02-06T06:22:09.073Z,-0.11
2023-02-06T06:24:35.772Z,-0.09
2023-02-06T06:27:03.913Z,-0.08
2023-02-06T06:29:30.793Z,-0.03
2023-02-06T06:31:57.528Z,-0.01
2023-02-06T06:34:27.724Z,-0.01
2023-02-06T06:36:54.456Z,0.02
2023-02-06T06:39:24.423Z,0.14
2023-02-06T06:41:51.114Z,0.05
2023-02-06T06:44:18.300Z,0.03
2023-02-06T06:46:45.075Z,-0.08
2023-02-06T06:49:11.819Z,-0.07
2023-02-06T06:51:38.573Z,0.06
2023-02-06T06:54:05.309Z,0.03
2023-02-06T06:56:32.196Z,0.04
2023-02-06T06:58:58.877Z,0.04
2023-02-06T07:01:25.701Z,0.01
2023-02-06T07:03:52.627Z,0.04
2023-02-06T07:06:19.802Z,0.19
2023-02-06T07:08:46.503Z,0.23
2023-02-06T07:11:14.907Z,0.21
2023-02-06T07:16:09.756Z,0.00
2023-02-06T07:18:38.638Z,0.05
2023-02-06T07:21:06.395Z,0.12
2023-02-06T07:23:33.895Z,0.24
2023-02-06T07:26:02.477Z,0.18
2023-02-06T07:28:30.970Z,0.14
2023-02-06T07:31:07.312Z,0.09
2023-02-06T07:33:34.446Z,0.20
2023-02-06T07:36:04.026Z,0.11
2023-02-06T07:38:31.033Z,0.25
2023-02-06T07:41:01.910Z,0.54
2023-02-06T07:43:28.971Z,0.43
2023-02-06T07:46:00.164Z,0.58
2023-02-06T07:48:27.451Z,0.65
2023-02-06T07:50:54.493Z,0.85
2023-02-06T07:53:24.493Z,0.74
2023-02-06T07:55:51.303Z,0.56
2023-02-06T07:58:18.409Z,0.65
2023-02-06T08:00:45.955Z,0.75
2023-02-06T08:03:12.984Z,0.81
2023-02-06T08:05:39.815Z,0.77
2023-02-06T08:08:07.371Z,0.85
2023-02-06T08:10:34.200Z,0.78
2023-02-06T08:13:01.297Z,0.89
2023-02-06T08:15:28.011Z,0.66
2023-02-06T08:17:57.922Z,0.63
2023-02-06T08:20:24.717Z,0.70
2023-02-06T08:22:51.663Z,0.84
2023-02-06T08:25:18.466Z,0.85
2023-02-06T08:27:45.512Z,0.82
2023-02-06T08:30:12.900Z,0.77
2023-02-06T08:32:39.739Z,0.88
2023-02-06T08:35:06.810Z,1.00
2023-02-06T08:37:33.559Z,0.83
2023-02-06T08:40:00.583Z,0.96
2023-02-06T08:42:27.323Z,0.83
2023-02-06T08:44:54.268Z,0.85
2023-02-06T08:47:21.002Z,1.04
2023-02-06T08:49:50.953Z,1.09
2023-02-06T08:52:18.107Z,0.98
2023-02-06T08:54:44.806Z,1.08
2023-02-06T08:57:13.062Z,1.32
2023-02-06T08:59:39.861Z,1.43
2023-02-06T09:02:08.552Z,1.32
2023-02-06T09:04:37.855Z,1.23
2023-02-06T09:07:04.693Z,1.44
2023-02-06T09:09:31.418Z,1.27
2023-02-06T09:12:04.261Z,1.32
2023-02-06T09:14:32.363Z,1.33
2023-02-06T09:16:59.142Z,1.75
2023-02-06T09:19:26.935Z,1.43
2023-02-06T09:21:54.871Z,1.64
2023-02-06T09:24:24.680Z,2.08
2023-02-06T09:26:59.806Z,2.12
2023-02-06T09:29:32.270Z,1.82
2023-02-06T09:31:59.496Z,1.79
2023-02-06T09:34:27.523Z,1.78
2023-02-06T09:36:54.832Z,1.94
2023-02-06T09:39:22.172Z,2.21
2023-02-06T09:42:04.116Z,2.01
2023-02-06T09:44:43.517Z,2.23
2023-02-06T09:47:31.422Z,2.13
2023-02-06T09:50:02.961Z,2.23
2023-02-06T09:52:44.365Z,2.43
2023-02-06T09:55:44.298Z,2.43
2023-02-06T10:01:21.835Z,2.94
2023-02-06T10:04:15.342Z,3.13
2023-02-06T10:06:44.349Z,3.47
2023-02-06T10:09:36.682Z,3.18
2023-02-06T10:12:17.504Z,3.03
2023-02-06T10:15:07.632Z,2.83
2023-02-06T10:17:44.321Z,2.84
2023-02-06T10:20:15.819Z,3.03
2023-02-06T10:22:44.345Z,2.96
2023-02-06T10:25:44.246Z,2.91
2023-02-06T10:28:31.318Z,2.76
2023-02-06T10:31:10.090Z,3.01
2023-02-06T10:33:44.296Z,2.83
2023-02-06T10:36:23.043Z,3.17
2023-02-06T10:39:18.511Z,3.28
2023-02-06T10:41:56.849Z,2.51
2023-02-06T10:44:33.106Z,2.81
2023-02-06T10:47:00.551Z,2.94
2023-02-06T10:49:43.340Z,2.93
2023-02-06T10:52:25.355Z,2.88
2023-02-06T10:54:55.743Z,3.23
2023-02-06T10:57:28.741Z,3.23
2023-02-06T11:00:00.302Z,3.35
2023-02-06T11:02:39.297Z,3.39
2023-02-06T11:05:19.705Z,4.85
2023-02-06T11:07:53.132Z,5.59
2023-02-06T11:10:22.879Z,5.06
2023-02-06T11:13:33.941Z,4.19
2023-02-06T11:16:04.964Z,4.01
2023-02-06T11:21:11.958Z,4.39
2023-02-06T11:23:39.569Z,4.04
2023-02-06T11:26:17.341Z,4.17
2023-02-06T11:28:58.434Z,3.70
2023-02-06T11:31:41.213Z,4.60
2023-02-06T11:34:21.979Z,3.86
2023-02-06T11:36:52.884Z,4.35
2023-02-06T11:39:27.726Z,3.74
2023-02-06T11:42:06.482Z,3.66
2023-02-06T11:44:45.471Z,4.50
2023-02-06T11:47:21.488Z,3.94
2023-02-06T11:49:48.481Z,6.76
2023-02-06T11:52:30.503Z,5.64
2023-02-06T11:55:02.329Z,7.58
2023-02-06T11:57:34.245Z,10.78
2023-02-06T12:00:19.621Z,7.52
2023-02-06T12:02:54.234Z,6.86
2023-02-06T12:05:25.496Z,5.25
2023-02-06T12:08:00.522Z,5.98
2023-02-06T12:10:32.165Z,5.57
2023-02-06T12:13:20.289Z,6.28
2023-02-06T12:15:50.688Z,5.28
2023-02-06T12:18:36.496Z,4.83
2023-02-06T12:21:17.165Z,4.89
2023-02-06T12:23:54.109Z,4.14
2023-02-06T12:26:24.365Z,3.94
2023-02-06T12:29:08.302Z,4.97
2023-02-06T12:31:41.778Z,4.17
2023-02-06T12:34:14.173Z,4.49
2023-02-06T12:36:43.425Z,4.76
2023-02-06T12:39:19.812Z,5.97
2023-02-06T12:42:12.471Z,7.46
2023-02-06T12:44:44.454Z,8.09
2023-02-06T12:47:22.842Z,7.02
2023-02-06T12:49:54.255Z,6.53
2023-02-06T12:52:31.434Z,5.70
2023-02-06T12:55:08.341Z,5.60
2023-02-06T12:57:37.306Z,4.13
2023-02-06T13:00:38.676Z,5.25
2023-02-06T13:03:28.747Z,4.56
2023-02-06T13:06:22.732Z,4.62
2023-02-06T13:09:09.631Z,4.52
2023-02-06T13:11:39.273Z,4.53
2023-02-06T13:14:17.838Z,4.13
2023-02-06T13:16:52.961Z,4.40
2023-02-06T13:19:44.768Z,4.08
2023-02-06T13:22:11.447Z,4.04
2023-02-06T13:24:44.655Z,4.24
2023-02-06T13:27:16.978Z,3.96
2023-02-06T13:29:43.513Z,3.75
2023-02-06T13:32:15.836Z,3.99
2023-02-06T13:34:44.603Z,4.04
2023-02-06T13:37:35.499Z,4.05
2023-02-06T13:40:26.853Z,4.18
2023-02-06T13:43:13.945Z,4.30
2023-02-06T13:48:46.589Z,4.21
2023-02-06T13:51:39.550Z,4.20
2023-02-06T13:54:41.401Z,3.99
2023-02-06T13:57:17.282Z,4.13
2023-02-06T14:00:19.373Z,4.16
2023-02-06T14:02:57.395Z,4.14
2023-02-06T14:05:44.680Z,4.20
2023-02-06T14:08:18.588Z,4.43
2023-02-06T14:11:04.024Z,4.27
2023-02-06T14:13:44.476Z,4.33
2023-02-06T14:16:44.384Z,4.45
2023-02-06T14:19:24.546Z,4.37
2023-02-06T14:22:05.546Z,4.15
2023-02-06T14:24:44.508Z,4.48
2023-02-06T14:27:27.575Z,4.26
2023-02-06T14:30:36.283Z,4.40
2023-02-06T14:33:11.498Z,4.29
2023-02-06T14:35:44.380Z,4.12
2023-02-06T14:38:26.066Z,3.91
2023-02-06T14:40:55.423Z,3.91
2023-02-06T14:43:28.736Z,3.91
2023-02-06T14:46:06.907Z,3.74
2023-02-06T14:48:44.550Z,3.83
2023-02-06T14:51:26.605Z,3.86
2023-02-06T14:53:57.718Z,3.61
2023-02-06T14:56:36.852Z,3.65
2023-02-06T14:59:12.832Z,3.76
2023-02-06T15:01:40.607Z,3.67
2023-02-06T15:04:15.210Z,3.58
2023-02-06T15:06:44.424Z,3.59
2023-02-06T15:09:29.404Z,3.47
2023-02-06T15:11:59.789Z,3.45
2023-02-06T15:14:32.047Z,3.48
2023-02-06T15:17:03.029Z,3.43
2023-02-06T15:19:32.929Z,3.32
2023-02-06T15:22:02.666Z,3.34
2023-02-06T15:24:35.039Z,3.27
2023-02-06T15:27:35.592Z,3.23
2023-02-06T15:30:20.894Z,3.23
2023-02-06T15:32:52.769Z,3.16
2023-02-06T15:35:33.258Z,3.10
2023-02-06T15:38:10.490Z,3.10
2023-02-06T15:43:20.147Z,3.01
2023-02-06T15:45:50.286Z,2.99
2023-02-06T15:48:40.602Z,3.02
2023-02-06T15:51:08.755Z,3.05
2023-02-06T15:53:38.871Z,2.99
2023-02-06T15:56:09.806Z,2.93
2023-02-06T15:58:38.149Z,2.88
2023-02-06T16:01:13.321Z,2.86
2023-02-06T16:03:41.641Z,2.80
2023-02-06T16:06:16.421Z,2.84
2023-02-06T16:08:45.627Z,2.79
2023-02-06T16:11:30.957Z,2.75
2023-02-06T16:13:58.076Z,2.65
2023-02-06T16:16:27.054Z,2.67
2023-02-06T16:18:57.493Z,2.65
2023-02-06T16:21:27.170Z,2.62
2023-02-06T16:24:07.073Z,2.61
2023-02-06T16:26:44.447Z,2.53
2023-02-06T16:29:11.612Z,2.51
2023-02-06T16:34:30.843Z,2.52
2023-02-06T16:36:57.873Z,2.37
2023-02-06T16:39:28.245Z,2.36
2023-02-06T16:41:55.107Z,2.24
2023-02-06T16:44:21.886Z,2.21
2023-02-06T16:46:48.708Z,2.08
2023-02-06T16:49:22.819Z,2.03
2023-02-06T16:51:52.938Z,1.92
2023-02-06T16:54:32.135Z,1.92
2023-02-06T16:57:09.702Z,1.89
2023-02-06T16:59:37.989Z,1.82
2023-02-06T17:02:16.672Z,1.83
2023-02-06T17:04:44.502Z,1.74
2023-02-06T17:07:26.523Z,1.75
2023-02-06T17:09:55.439Z,1.70
2023-02-06T17:12:23.591Z,1.59
2023-02-06T17:14:50.410Z,1.57
2023-02-06T17:17:20.879Z,1.51
2023-02-06T17:19:49.877Z,1.55
2023-02-06T17:22:16.987Z,1.50
2023-02-06T17:24:44.735Z,1.43
2023-02-06T17:27:20.400Z,1.47
2023-02-06T17:29:47.948Z,1.41
2023-02-06T17:32:16.399Z,1.41
2023-02-06T17:34:44.828Z,1.31
2023-02-06T17:37:20.883Z,1.30
2023-02-06T17:39:52.117Z,1.26
2023-02-06T17:42:19.953Z,1.20
2023-02-06T17:44:46.959Z,1.21
2023-02-06T17:47:19.803Z,1.28
2023-02-06T17:49:47.294Z,1.22
2023-02-06T17:52:18.021Z,1.18
2023-02-06T17:54:44.969Z,1.27
2023-02-06T17:57:13.760Z,1.28
2023-02-06T17:59:40.761Z,1.31
2023-02-06T18:02:07.595Z,1.23
2023-02-06T18:04:34.486Z,1.32
2023-02-06T18:07:01.351Z,1.21
2023-02-06T18:09:28.219Z,1.28
2023-02-06T18:11:55.324Z,1.23
2023-02-06T18:14:22.165Z,1.19
2023-02-06T18:16:48.928Z,1.27
2023-02-06T18:19:17.280Z,1.22
2023-02-06T18:21:44.013Z,1.26
2023-02-06T18:24:10.812Z,1.30
2023-02-06T18:26:37.714Z,1.22
2023-02-06T18:29:05.853Z,1.25
2023-02-06T18:31:37.357Z,1.24
2023-02-06T18:34:08.116Z,1.39
2023-02-06T18:36:36.790Z,1.36
2023-02-06T18:39:06.749Z,1.31
2023-02-06T18:44:10.658Z,1.30
2023-02-06T18:46:38.186Z,1.28
2023-02-06T18:49:08.820Z,1.21
2023-02-06T18:51:35.951Z,1.25
2023-02-06T18:54:04.353Z,1.21
2023-02-06T18:56:31.431Z,1.09
2023-02-06T18:58:59.094Z,1.06
2023-02-06T19:01:26.814Z,1.05
2023-02-06T19:03:54.148Z,1.02
2023-02-06T19:06:32.959Z,1.08
2023-02-06T19:08:59.922Z,0.96
2023-02-06T19:11:27.451Z,1.07
2023-02-06T19:13:54.736Z,1.08
2023-02-06T19:16:22.097Z,1.15
2023-02-06T19:18:49.873Z,1.09
2023-02-06T19:21:19.760Z,1.10
2023-02-06T19:23:53.589Z,1.14
2023-02-06T19:26:20.421Z,1.14
2023-02-06T19:28:50.429Z,1.15
2023-02-06T19:31:27.304Z,1.14
2023-02-06T19:33:58.359Z,1.08
2023-02-06T19:36:26.793Z,1.11
2023-02-06T19:38:57.958Z,1.17
2023-02-06T19:41:27.047Z,1.24
2023-02-06T19:43:55.711Z,1.21
2023-02-06T19:46:25.458Z,1.24
2023-02-06T19:48:56.577Z,1.29
2023-02-06T19:51:27.682Z,1.27
2023-02-06T19:53:57.322Z,1.25
2023-02-06T19:56:26.026Z,1.33
2023-02-06T19:58:58.204Z,1.25
2023-02-06T20:01:26.222Z,1.15
2023-02-06T20:03:53.108Z,1.25
2023-02-06T20:06:20.270Z,1.24
2023-02-06T20:08:47.595Z,1.25
2023-02-06T20:11:18.095Z,1.19
2023-02-06T20:13:47.544Z,1.26
2023-02-06T20:16:24.067Z,1.23
2023-02-06T20:18:51.629Z,1.22
2023-02-06T20:21:26.980Z,1.20
2023-02-06T20:23:55.699Z,1.30
2023-02-06T20:26:25.610Z,1.29
2023-02-06T20:28:56.364Z,1.35
2023-02-06T20:31:24.018Z,1.34
2023-02-06T20:33:51.473Z,1.35
2023-02-06T20:36:24.734Z,1.26
2023-02-06T20:38:57.890Z,1.32
2023-02-06T20:41:29.718Z,1.25
2023-02-06T20:44:01.972Z,1.33
2023-02-06T20:46:36.258Z,1.22
2023-02-06T20:49:06.785Z,1.24
2023-02-06T20:51:33.608Z,1.17
2023-02-06T20:54:00.590Z,1.21
2023-02-06T20:56:28.277Z,1.28
2023-02-06T20:58:56.790Z,1.17
2023-02-06T21:01:27.065Z,1.20
2023-02-06T21:04:07.333Z,1.19
2023-02-06T21:06:36.053Z,1.29
2023-02-06T21:09:04.662Z,1.24
2023-02-06T21:11:35.426Z,1.22
2023-02-06T21:14:08.830Z,1.18
2023-02-06T21:16:37.889Z,1.22
2023-02-06T21:19:10.322Z,1.21
2023-02-06T21:21:41.318Z,1.07
2023-02-06T21:24:08.983Z,1.09
2023-02-06T21:26:37.107Z,1.06
2023-02-06T21:29:10.503Z,1.12
2023-02-06T21:31:38.855Z,1.02
2023-02-06T21:34:13.719Z,1.12
2023-02-06T21:36:41.437Z,1.13
2023-02-06T21:39:09.493Z,1.08
2023-02-06T21:41:37.274Z,1.07
2023-02-06T21:44:04.593Z,1.06
2023-02-06T21:46:31.405Z,1.06
2023-02-06T21:49:00.702Z,1.10
2023-02-06T21:51:27.966Z,1.16
2023-02-06T21:53:56.694Z,1.07
2023-02-06T21:56:31.420Z,1.06
2023-02-06T21:58:58.703Z,1.09
2023-02-06T22:01:30.951Z,1.01
2023-02-06T22:03:58.398Z,0.99
2023-02-06T22:06:26.172Z,1.11
2023-02-06T22:08:54.422Z,0.98
2023-02-06T22:11:29.620Z,1.04
2023-02-06T22:14:01.971Z,1.01
2023-02-06T22:16:29.832Z,1.06
2023-02-06T22:19:06.266Z,0.95
2023-02-06T22:21:34.530Z,0.98
2023-02-06T22:24:07.316Z,0.96
2023-02-06T22:26:38.896Z,1.01
2023-02-06T22:29:07.866Z,0.98
2023-02-06T22:31:35.522Z,1.04
2023-02-06T22:34:03.268Z,1.01
2023-02-06T22:36:32.263Z,1.08
2023-02-06T22:39:04.128Z,1.06
2023-02-06T22:41:31.309Z,1.08
2023-02-06T22:43:58.570Z,1.06
2023-02-06T22:46:28.062Z,1.05
2023-02-06T22:48:56.084Z,1.01
2023-02-06T22:51:23.464Z,0.95
2023-02-06T22:53:50.808Z,1.02
2023-02-06T22:56:31.889Z,0.85
2023-02-06T22:59:00.377Z,0.84
2023-02-06T23:01:39.352Z,0.68
2023-02-06T23:04:08.528Z,0.64
2023-02-06T23:06:36.396Z,0.66
2023-02-06T23:09:05.831Z,0.57
2023-02-06T23:11:33.665Z,0.44
2023-02-06T23:14:06.267Z,0.31
2023-02-06T23:16:34.953Z,0.26
2023-02-06T23:19:04.894Z,0.15
2023-02-06T23:21:34.639Z,0.25
2023-02-06T23:24:01.739Z,0.06
2023-02-06T23:26:30.213Z,0.00
2023-02-06T23:28:59.362Z,-0.06
2023-02-06T23:31:30.040Z,-0.16
2023-02-06T23:33:57.148Z,-0.25
2023-02-06T23:36:26.489Z,-0.27
2023-02-06T23:38:56.495Z,-0.21
2023-02-06T23:41:26.204Z,-0.22
2023-02-06T23:44:02.064Z,-0.29
2023-02-06T23:46:31.348Z,-0.35
2023-02-06T23:48:58.925Z,-0.37
2023-02-06T23:51:26.433Z,-0.57
2023-02-06T23:53:53.230Z,-0.48
2023-02-06T23:56:23.551Z,-0.43
2023-02-06T23:58:51.339Z,-0.43
